sensor_id;sensor_type;location;lat;lon;timestamp;pressure;altitude;pressure_sealevel;temperature;humidity
68628;BME280;55611;48.602;9.490;2023-07-13T00:00:13;96880;;;24.9;44.5
68628;BME280;55611;48.602;9.490;2023-07-13T00:02:44;96870;;;24.8;44.5
68628;BME280;55611;48.602;9.490;2023-07-13T00:05:15;96870;;;24.8;44.5
68628;BME280;55611;48.602;9.490;2023-07-13T00:07:46;96870;;;24.8;44.5
68628;BME280;55611;48.602;9.490;2023-07-13T00:10:17;96870;;;24.7;44.5
68628;BME280;55611;48.602;9.490;2023-07-13T00:12:47;96880;;;24.6;44.5
68628;BME280;55611;48.602;9.490;2023-07-13T00:15:20;96870;;;24.6;44.5
68628;BME280;55611;48.602;9.490;2023-07-13T00:17:49;96860;;;24.5;44.5
68628;BME280;55611;48.602;9.490;2023-07-13T00:20:20;96870;;;24.5;44.5
68628;BME280;55611;48.602;9.490;2023-07-13T00:22:51;96870;;;24.5;44.5
68628;BME280;55611;48.602;9.490;2023-07-13T00:25:21;96870;;;24.4;44.5
68628;BME280;55611;48.602;9.490;2023-07-13T00:27:52;96870;;;24.4;44.5
68628;BME280;55611;48.602;9.490;2023-07-13T00:30:23;96880;;;24.4;44.5
68628;BME280;55611;48.602;9.490;2023-07-13T00:32:54;96890;;;24.4;44.5
68628;BME280;55611;48.602;9.490;2023-07-13T00:35:25;96890;;;24.4;44.5
68628;BME280;55611;48.602;9.490;2023-07-13T00:37:55;96890;;;24.4;44.5
68628;BME280;55611;48.602;9.490;2023-07-13T00:40:26;96890;;;24.5;44.5
68628;BME280;55611;48.602;9.490;2023-07-13T00:42:58;96890;;;24.5;44.5
68628;BME280;55611;48.602;9.490;2023-07-13T00:47:58;96890;;;24.5;44.5
68628;BME280;55611;48.602;9.490;2023-07-13T00:50:29;96890;;;24.4;44.5
68628;BME280;55611;48.602;9.490;2023-07-13T00:53:00;96890;;;24.4;44.5
68628;BME280;55611;48.602;9.490;2023-07-13T00:55:30;96900;;;24.4;44.5
68628;BME280;55611;48.602;9.490;2023-07-13T00:58:01;96900;;;24.2;44.5
68628;BME280;55611;48.602;9.490;2023-07-13T01:00:33;96900;;;24.2;44.5
68628;BME280;55611;48.602;9.490;2023-07-13T01:03:03;96900;;;24.1;44.5
68628;BME280;55611;48.602;9.490;2023-07-13T01:05:34;96900;;;24;44.5
68628;BME280;55611;48.602;9.490;2023-07-13T01:08:04;96900;;;24;44.5
68628;BME280;55611;48.602;9.490;2023-07-13T01:10:35;96910;;;23.9;44.5
68628;BME280;55611;48.602;9.490;2023-07-13T01:13:07;96910;;;23.9;44.5
68628;BME280;55611;48.602;9.490;2023-07-13T01:15:39;96910;;;23.9;44.5
68628;BME280;55611;48.602;9.490;2023-07-13T01:18:09;96910;;;23.9;44.5
68628;BME280;55611;48.602;9.490;2023-07-13T01:20:39;96920;;;23.8;44.5
68628;BME280;55611;48.602;9.490;2023-07-13T01:23:10;96910;;;23.8;44.5
68628;BME280;55611;48.602;9.490;2023-07-13T01:25:40;96910;;;23.8;45
68628;BME280;55611;48.602;9.490;2023-07-13T01:30:42;96910;;;23.7;45
68628;BME280;55611;48.602;9.490;2023-07-13T01:33:13;96910;;;23.7;44.5
68628;BME280;55611;48.602;9.490;2023-07-13T01:35:44;96910;;;23.6;45
68628;BME280;55611;48.602;9.490;2023-07-13T01:38:15;96900;;;23.6;45
68628;BME280;55611;48.602;9.490;2023-07-13T01:40:45;96900;;;23.5;45
68628;BME280;55611;48.602;9.490;2023-07-13T01:43:15;96900;;;23.5;45
68628;BME280;55611;48.602;9.490;2023-07-13T01:45:46;96910;;;23.5;45
68628;BME280;55611;48.602;9.490;2023-07-13T01:48:17;96910;;;23.4;45
68628;BME280;55611;48.602;9.490;2023-07-13T01:50:48;96910;;;23.4;45
68628;BME280;55611;48.602;9.490;2023-07-13T01:53:18;96910;;;23.4;45
68628;BME280;55611;48.602;9.490;2023-07-13T01:55:49;96910;;;23.3;45
68628;BME280;55611;48.602;9.490;2023-07-13T01:58:20;96920;;;23.3;45
68628;BME280;55611;48.602;9.490;2023-07-13T02:00:51;96920;;;23.2;45
68628;BME280;55611;48.602;9.490;2023-07-13T02:03:21;96920;;;23.2;45
68628;BME280;55611;48.602;9.490;2023-07-13T02:05:52;96920;;;23.3;45
68628;BME280;55611;48.602;9.490;2023-07-13T02:08:23;96920;;;23.3;45
68628;BME280;55611;48.602;9.490;2023-07-13T02:10:54;96920;;;23.4;45
68628;BME280;55611;48.602;9.490;2023-07-13T02:13:24;96930;;;23.4;45
68628;BME280;55611;48.602;9.490;2023-07-13T02:15:55;96930;;;23.4;45
68628;BME280;55611;48.602;9.490;2023-07-13T02:18:26;96930;;;23.5;45
68628;BME280;55611;48.602;9.490;2023-07-13T02:20:57;96930;;;23.5;45
68628;BME280;55611;48.602;9.490;2023-07-13T02:23:28;96930;;;23.4;45
68628;BME280;55611;48.602;9.490;2023-07-13T02:25:59;96930;;;23.4;45
68628;BME280;55611;48.602;9.490;2023-07-13T02:28:29;96930;;;23.3;45
68628;BME280;55611;48.602;9.490;2023-07-13T02:31:08;96930;;;23.3;45
68628;BME280;55611;48.602;9.490;2023-07-13T02:33:31;96930;;;23.3;45
68628;BME280;55611;48.602;9.490;2023-07-13T02:36:01;96930;;;23.2;45
68628;BME280;55611;48.602;9.490;2023-07-13T02:38:33;96920;;;23.1;45
68628;BME280;55611;48.602;9.490;2023-07-13T02:41:04;96920;;;23.1;45
68628;BME280;55611;48.602;9.490;2023-07-13T02:43:34;96910;;;23.1;45
68628;BME280;55611;48.602;9.490;2023-07-13T02:46:05;96920;;;23;45
68628;BME280;55611;48.602;9.490;2023-07-13T02:48:36;96920;;;22.9;45.5
68628;BME280;55611;48.602;9.490;2023-07-13T02:51:06;96920;;;22.8;45.5
68628;BME280;55611;48.602;9.490;2023-07-13T02:53:37;96920;;;22.7;45.5
68628;BME280;55611;48.602;9.490;2023-07-13T02:56:08;96920;;;22.6;45.5
68628;BME280;55611;48.602;9.490;2023-07-13T02:58:38;96920;;;22.5;45.5
68628;BME280;55611;48.602;9.490;2023-07-13T03:01:10;96920;;;22.5;45.5
68628;BME280;55611;48.602;9.490;2023-07-13T03:03:40;96920;;;22.5;45.5
68628;BME280;55611;48.602;9.490;2023-07-13T03:06:11;96920;;;22.5;45.5
68628;BME280;55611;48.602;9.490;2023-07-13T03:08:42;96920;;;22.5;45.5
68628;BME280;55611;48.602;9.490;2023-07-13T03:11:14;96920;;;22.4;45.5
68628;BME280;55611;48.602;9.490;2023-07-13T03:13:43;96920;;;22.4;45.5
68628;BME280;55611;48.602;9.490;2023-07-13T03:16:14;96920;;;22.3;45.5
68628;BME280;55611;48.602;9.490;2023-07-13T03:18:45;96920;;;22.3;45.5
68628;BME280;55611;48.602;9.490;2023-07-13T03:21:15;96920;;;22.3;45.5
68628;BME280;55611;48.602;9.490;2023-07-13T03:23:47;96920;;;22.3;45.5
68628;BME280;55611;48.602;9.490;2023-07-13T03:26:18;96930;;;22.3;45.5
68628;BME280;55611;48.602;9.490;2023-07-13T03:28:48;96930;;;22.4;46
68628;BME280;55611;48.602;9.490;2023-07-13T03:31:20;96940;;;22.4;45.5
68628;BME280;55611;48.602;9.490;2023-07-13T03:33:49;96940;;;22.4;45.5
68628;BME280;55611;48.602;9.490;2023-07-13T03:36:21;96940;;;22.5;45.5
68628;BME280;55611;48.602;9.490;2023-07-13T03:38:53;96940;;;22.5;46
68628;BME280;55611;48.602;9.490;2023-07-13T03:41:22;96940;;;22.6;45.5
68628;BME280;55611;48.602;9.490;2023-07-13T03:43:52;96940;;;22.6;45.5
68628;BME280;55611;48.602;9.490;2023-07-13T03:46:23;96940;;;22.6;45.5
68628;BME280;55611;48.602;9.490;2023-07-13T03:48:54;96940;;;22.6;45.5
68628;BME280;55611;48.602;9.490;2023-07-13T03:51:25;96940;;;22.6;45.5
68628;BME280;55611;48.602;9.490;2023-07-13T03:53:56;96950;;;22.6;45.5
68628;BME280;55611;48.602;9.490;2023-07-13T03:56:26;96950;;;22.6;46
68628;BME280;55611;48.602;9.490;2023-07-13T03:58:57;96960;;;22.5;46
68628;BME280;55611;48.602;9.490;2023-07-13T04:01:28;96960;;;22.6;46
68628;BME280;55611;48.602;9.490;2023-07-13T04:03:59;96960;;;22.6;46
68628;BME280;55611;48.602;9.490;2023-07-13T04:06:30;96960;;;22.6;46
68628;BME280;55611;48.602;9.490;2023-07-13T04:09:00;96950;;;22.6;46
68628;BME280;55611;48.602;9.490;2023-07-13T04:11:31;96950;;;22.6;46
68628;BME280;55611;48.602;9.490;2023-07-13T04:14:02;96950;;;22.6;46
68628;BME280;55611;48.602;9.490;2023-07-13T04:16:32;96960;;;22.6;46
68628;BME280;55611;48.602;9.490;2023-07-13T04:19:03;96960;;;22.6;46
68628;BME280;55611;48.602;9.490;2023-07-13T04:21:34;96970;;;22.5;46
68628;BME280;55611;48.602;9.490;2023-07-13T04:24:05;96970;;;22.5;46
68628;BME280;55611;48.602;9.490;2023-07-13T04:26:36;96980;;;22.5;46
68628;BME280;55611;48.602;9.490;2023-07-13T04:29:06;96980;;;22.5;46
68628;BME280;55611;48.602;9.490;2023-07-13T04:31:37;96980;;;22.4;46
68628;BME280;55611;48.602;9.490;2023-07-13T04:34:08;96980;;;22.4;46
68628;BME280;55611;48.602;9.490;2023-07-13T04:36:39;96980;;;22.4;46
68628;BME280;55611;48.602;9.490;2023-07-13T04:39:10;96980;;;22.4;46
68628;BME280;55611;48.602;9.490;2023-07-13T04:41:40;96980;;;22.4;46
68628;BME280;55611;48.602;9.490;2023-07-13T04:44:11;96980;;;22.4;46
68628;BME280;55611;48.602;9.490;2023-07-13T04:46:42;96980;;;22.4;46
68628;BME280;55611;48.602;9.490;2023-07-13T04:49:12;96980;;;22.5;46
68628;BME280;55611;48.602;9.490;2023-07-13T04:51:43;96980;;;22.5;46
68628;BME280;55611;48.602;9.490;2023-07-13T04:54:14;96980;;;22.6;46
68628;BME280;55611;48.602;9.490;2023-07-13T04:56:45;96980;;;22.5;46
68628;BME280;55611;48.602;9.490;2023-07-13T04:59:16;96990;;;22.5;46
68628;BME280;55611;48.602;9.490;2023-07-13T05:01:46;96990;;;22.5;46
68628;BME280;55611;48.602;9.490;2023-07-13T05:04:17;96990;;;22.4;46
68628;BME280;55611;48.602;9.490;2023-07-13T05:06:48;96990;;;22.4;46
68628;BME280;55611;48.602;9.490;2023-07-13T05:09:19;96990;;;22.4;46
68628;BME280;55611;48.602;9.490;2023-07-13T05:11:49;96990;;;22.5;46
68628;BME280;55611;48.602;9.490;2023-07-13T05:14:20;96990;;;22.5;46
68628;BME280;55611;48.602;9.490;2023-07-13T05:16:51;96980;;;22.5;46
68628;BME280;55611;48.602;9.490;2023-07-13T05:19:22;96990;;;22.6;46
68628;BME280;55611;48.602;9.490;2023-07-13T05:21:53;96990;;;22.6;46
68628;BME280;55611;48.602;9.490;2023-07-13T05:24:23;97000;;;22.6;46
68628;BME280;55611;48.602;9.490;2023-07-13T05:26:54;97000;;;22.6;46
68628;BME280;55611;48.602;9.490;2023-07-13T05:29:25;97010;;;22.6;46
68628;BME280;55611;48.602;9.490;2023-07-13T05:31:56;97000;;;22.6;46
68628;BME280;55611;48.602;9.490;2023-07-13T05:34:26;97010;;;22.6;46
68628;BME280;55611;48.602;9.490;2023-07-13T05:36:57;97010;;;22.7;46.5
68628;BME280;55611;48.602;9.490;2023-07-13T05:39:28;97010;;;22.7;46
68628;BME280;55611;48.602;9.490;2023-07-13T05:41:59;97020;;;22.7;46
68628;BME280;55611;48.602;9.490;2023-07-13T05:44:30;97020;;;22.7;46
68628;BME280;55611;48.602;9.490;2023-07-13T05:47:01;97020;;;22.8;46
68628;BME280;55611;48.602;9.490;2023-07-13T05:49:31;97020;;;22.9;46
68628;BME280;55611;48.602;9.490;2023-07-13T05:52:02;97020;;;22.9;46.5
68628;BME280;55611;48.602;9.490;2023-07-13T05:54:33;97030;;;23;46
68628;BME280;55611;48.602;9.490;2023-07-13T05:57:04;97020;;;23;46
68628;BME280;55611;48.602;9.490;2023-07-13T05:59:35;97020;;;23.2;46
68628;BME280;55611;48.602;9.490;2023-07-13T06:04:36;97020;;;23.3;46
68628;BME280;55611;48.602;9.490;2023-07-13T06:07:07;97030;;;23.2;46
68628;BME280;55611;48.602;9.490;2023-07-13T06:09:37;97030;;;23.2;46
68628;BME280;55611;48.602;9.490;2023-07-13T06:12:08;97030;;;23.4;46
68628;BME280;55611;48.602;9.490;2023-07-13T06:14:39;97030;;;23.6;46
68628;BME280;55611;48.602;9.490;2023-07-13T06:17:10;97030;;;23.8;46
68628;BME280;55611;48.602;9.490;2023-07-13T06:19:40;97030;;;23.9;46
68628;BME280;55611;48.602;9.490;2023-07-13T06:22:11;97040;;;23.8;46
68628;BME280;55611;48.602;9.490;2023-07-13T06:24:42;97040;;;23.8;45.5
68628;BME280;55611;48.602;9.490;2023-07-13T06:27:13;97050;;;23.9;46
68628;BME280;55611;48.602;9.490;2023-07-13T06:29:43;97040;;;24;45.5
68628;BME280;55611;48.602;9.490;2023-07-13T06:32:14;97050;;;24.2;45.5
68628;BME280;55611;48.602;9.490;2023-07-13T06:34:45;97050;;;24.3;45.5
68628;BME280;55611;48.602;9.490;2023-07-13T06:37:16;97050;;;24.3;45.5
68628;BME280;55611;48.602;9.490;2023-07-13T06:39:47;97050;;;24.2;45.5
68628;BME280;55611;48.602;9.490;2023-07-13T06:42:17;97050;;;24.2;45.5
68628;BME280;55611;48.602;9.490;2023-07-13T06:44:48;97060;;;24.1;45.5
68628;BME280;55611;48.602;9.490;2023-07-13T06:47:19;97060;;;23.9;45.5
68628;BME280;55611;48.602;9.490;2023-07-13T06:49:50;97060;;;23.7;45.5
68628;BME280;55611;48.602;9.490;2023-07-13T06:52:21;97060;;;23.5;45.5
68628;BME280;55611;48.602;9.490;2023-07-13T06:54:51;97060;;;23.5;45.5
68628;BME280;55611;48.602;9.490;2023-07-13T06:57:22;97070;;;23.5;45.5
68628;BME280;55611;48.602;9.490;2023-07-13T06:59:53;97070;;;23.5;45.5
68628;BME280;55611;48.602;9.490;2023-07-13T07:02:24;97070;;;23.6;45.5
68628;BME280;55611;48.602;9.490;2023-07-13T07:04:54;97070;;;23.9;45.5
68628;BME280;55611;48.602;9.490;2023-07-13T07:07:25;97070;;;24.1;45.5
68628;BME280;55611;48.602;9.490;2023-07-13T07:09:56;97060;;;24;45.5
68628;BME280;55611;48.602;9.490;2023-07-13T07:12:27;97070;;;24;45.5
68628;BME280;55611;48.602;9.490;2023-07-13T07:14:57;97060;;;24.1;45.5
68628;BME280;55611;48.602;9.490;2023-07-13T07:17:28;97070;;;24.2;45.5
68628;BME280;55611;48.602;9.490;2023-07-13T07:19:59;97070;;;24.4;45.5
68628;BME280;55611;48.602;9.490;2023-07-13T07:22:30;97070;;;24.4;45
68628;BME280;55611;48.602;9.490;2023-07-13T07:25:01;97070;;;24.3;45
68628;BME280;55611;48.602;9.490;2023-07-13T07:27:32;97080;;;24.1;45
68628;BME280;55611;48.602;9.490;2023-07-13T07:30:02;97080;;;24.1;45
68628;BME280;55611;48.602;9.490;2023-07-13T07:32:33;97080;;;24;45
68628;BME280;55611;48.602;9.490;2023-07-13T07:35:04;97070;;;24.1;45
68628;BME280;55611;48.602;9.490;2023-07-13T07:37:34;97080;;;24.3;45
68628;BME280;55611;48.602;9.490;2023-07-13T07:40:05;97080;;;24.3;45
68628;BME280;55611;48.602;9.490;2023-07-13T07:42:36;97080;;;24.4;45
68628;BME280;55611;48.602;9.490;2023-07-13T07:45:07;97080;;;24.4;45
68628;BME280;55611;48.602;9.490;2023-07-13T07:47:37;97080;;;24.5;45
68628;BME280;55611;48.602;9.490;2023-07-13T07:50:09;97080;;;24.6;45
68628;BME280;55611;48.602;9.490;2023-07-13T07:52:39;97080;;;24.6;45
68628;BME280;55611;48.602;9.490;2023-07-13T07:55:10;97080;;;24.8;45
68628;BME280;55611;48.602;9.490;2023-07-13T07:57:41;97080;;;25;45
68628;BME280;55611;48.602;9.490;2023-07-13T08:00:11;97090;;;25.2;45
68628;BME280;55611;48.602;9.490;2023-07-13T08:02:43;97090;;;25.3;44.5
68628;BME280;55611;48.602;9.490;2023-07-13T08:05:13;97090;;;25.4;44.5
68628;BME280;55611;48.602;9.490;2023-07-13T08:07:44;97080;;;25.5;44.5
68628;BME280;55611;48.602;9.490;2023-07-13T08:10:15;97090;;;25.5;44.5
68628;BME280;55611;48.602;9.490;2023-07-13T08:12:45;97080;;;25.6;44.5
68628;BME280;55611;48.602;9.490;2023-07-13T08:15:17;97090;;;25.7;44.5
68628;BME280;55611;48.602;9.490;2023-07-13T08:17:47;97080;;;25.7;44.5
68628;BME280;55611;48.602;9.490;2023-07-13T08:20:18;97080;;;25.5;44.5
68628;BME280;55611;48.602;9.490;2023-07-13T08:22:48;97080;;;25.6;44.5
68628;BME280;55611;48.602;9.490;2023-07-13T08:25:19;97080;;;25.7;44.5
68628;BME280;55611;48.602;9.490;2023-07-13T08:27:50;97080;;;25.8;44.5
68628;BME280;55611;48.602;9.490;2023-07-13T08:30:21;97080;;;25.9;44.5
68628;BME280;55611;48.602;9.490;2023-07-13T08:32:52;97080;;;26;44.5
68628;BME280;55611;48.602;9.490;2023-07-13T08:35:22;97080;;;26;44
68628;BME280;55611;48.602;9.490;2023-07-13T08:37:53;97080;;;25.9;44
68628;BME280;55611;48.602;9.490;2023-07-13T08:40:24;97080;;;26;44
68628;BME280;55611;48.602;9.490;2023-07-13T08:42:57;97090;;;26.1;44
68628;BME280;55611;48.602;9.490;2023-07-13T08:45:28;97090;;;26.1;44
68628;BME280;55611;48.602;9.490;2023-07-13T08:48:01;97090;;;26.1;44
68628;BME280;55611;48.602;9.490;2023-07-13T08:50:29;97080;;;26.1;44
68628;BME280;55611;48.602;9.490;2023-07-13T08:52:58;97080;;;26.1;44
68628;BME280;55611;48.602;9.490;2023-07-13T08:55:30;97090;;;26.1;43.5
68628;BME280;55611;48.602;9.490;2023-07-13T08:58:00;97090;;;26.1;43.5
68628;BME280;55611;48.602;9.490;2023-07-13T09:00:34;97090;;;26.2;43.5
68628;BME280;55611;48.602;9.490;2023-07-13T09:03:01;97100;;;26.1;43.5
68628;BME280;55611;48.602;9.490;2023-07-13T09:05:35;97090;;;26.1;43.5
68628;BME280;55611;48.602;9.490;2023-07-13T09:08:07;97100;;;26.1;43.5
68628;BME280;55611;48.602;9.490;2023-07-13T09:10:37;97090;;;26.1;43.5
68628;BME280;55611;48.602;9.490;2023-07-13T09:13:07;97090;;;26.2;43.5
68628;BME280;55611;48.602;9.490;2023-07-13T09:15:36;97090;;;26.3;43.5
68628;BME280;55611;48.602;9.490;2023-07-13T09:18:08;97080;;;26.1;43.5
68628;BME280;55611;48.602;9.490;2023-07-13T09:20:37;97090;;;26.3;43.5
68628;BME280;55611;48.602;9.490;2023-07-13T09:23:10;97090;;;26.3;43.5
68628;BME280;55611;48.602;9.490;2023-07-13T09:25:38;97090;;;26.2;43.5
68628;BME280;55611;48.602;9.490;2023-07-13T09:28:10;97090;;;26.3;43.5
68628;BME280;55611;48.602;9.490;2023-07-13T09:30:50;97090;;;26.3;43.5
68628;BME280;55611;48.602;9.490;2023-07-13T09:33:10;97090;;;26.4;43.5
68628;BME280;55611;48.602;9.490;2023-07-13T09:35:41;97090;;;26.5;43.5
68628;BME280;55611;48.602;9.490;2023-07-13T09:38:13;97090;;;26.5;43
68628;BME280;55611;48.602;9.490;2023-07-13T09:40:59;97090;;;26.5;43
68628;BME280;55611;48.602;9.490;2023-07-13T09:43:14;97080;;;26.5;43
68628;BME280;55611;48.602;9.490;2023-07-13T09:45:45;97080;;;26.7;43
68628;BME280;55611;48.602;9.490;2023-07-13T09:48:15;97090;;;26.9;43
68628;BME280;55611;48.602;9.490;2023-07-13T09:50:46;97080;;;27.1;43
68628;BME280;55611;48.602;9.490;2023-07-13T09:53:17;97090;;;27.1;43
68628;BME280;55611;48.602;9.490;2023-07-13T09:55:48;97090;;;27.3;43
68628;BME280;55611;48.602;9.490;2023-07-13T09:58:19;97080;;;27.4;43
68628;BME280;55611;48.602;9.490;2023-07-13T10:00:57;97090;;;27.1;42.5
68628;BME280;55611;48.602;9.490;2023-07-13T10:03:20;97090;;;26.9;42.5
68628;BME280;55611;48.602;9.490;2023-07-13T10:05:51;97100;;;26.9;42.5
68628;BME280;55611;48.602;9.490;2023-07-13T10:08:23;97100;;;27.1;43
68628;BME280;55611;48.602;9.490;2023-07-13T10:10:52;97090;;;27.3;43
68628;BME280;55611;48.602;9.490;2023-07-13T10:13:26;97100;;;27.3;42.5
68628;BME280;55611;48.602;9.490;2023-07-13T10:15:54;97100;;;27.4;42.5
68628;BME280;55611;48.602;9.490;2023-07-13T10:18:24;97100;;;27.5;42.5
68628;BME280;55611;48.602;9.490;2023-07-13T10:20:58;97100;;;27.4;42.5
68628;BME280;55611;48.602;9.490;2023-07-13T10:23:31;97100;;;27.2;42.5
68628;BME280;55611;48.602;9.490;2023-07-13T10:25:56;97100;;;27.2;42.5
68628;BME280;55611;48.602;9.490;2023-07-13T10:28:31;97100;;;27.3;42.5
68628;BME280;55611;48.602;9.490;2023-07-13T10:30:58;97090;;;27.2;42.5
68628;BME280;55611;48.602;9.490;2023-07-13T10:33:29;97090;;;27;42.5
68628;BME280;55611;48.602;9.490;2023-07-13T10:37:03;97090;;;27;42.5
68628;BME280;55611;48.602;9.490;2023-07-13T10:38:30;97100;;;27;42.5
68628;BME280;55611;48.602;9.490;2023-07-13T10:41:02;97090;;;27.2;42.5
68628;BME280;55611;48.602;9.490;2023-07-13T10:43:36;97090;;;27.3;42.5
68628;BME280;55611;48.602;9.490;2023-07-13T10:46:03;97090;;;27.3;42.5
68628;BME280;55611;48.602;9.490;2023-07-13T10:48:34;97090;;;27.4;42.5
68628;BME280;55611;48.602;9.490;2023-07-13T10:51:05;97090;;;27.5;42
68628;BME280;55611;48.602;9.490;2023-07-13T10:53:36;97080;;;27.7;42
68628;BME280;55611;48.602;9.490;2023-07-13T10:56:10;97080;;;27.9;42
68628;BME280;55611;48.602;9.490;2023-07-13T10:58:37;97080;;;28.1;42
68628;BME280;55611;48.602;9.490;2023-07-13T11:01:08;97060;;;28.2;42
68628;BME280;55611;48.602;9.490;2023-07-13T11:03:46;97060;;;28.3;42
68628;BME280;55611;48.602;9.490;2023-07-13T11:06:17;97070;;;28.5;42
68628;BME280;55611;48.602;9.490;2023-07-13T11:08:52;97060;;;28.6;41.5
68628;BME280;55611;48.602;9.490;2023-07-13T11:11:34;97070;;;28.6;41.5
68628;BME280;55611;48.602;9.490;2023-07-13T11:16:13;97060;;;28.5;41.5
68628;BME280;55611;48.602;9.490;2023-07-13T11:18:47;97060;;;28.5;41.5
68628;BME280;55611;48.602;9.490;2023-07-13T11:21:14;97060;;;28.7;41.5
68628;BME280;55611;48.602;9.490;2023-07-13T11:23:45;97050;;;28.6;41.5
68628;BME280;55611;48.602;9.490;2023-07-13T11:26:52;97050;;;28.5;41.5
68628;BME280;55611;48.602;9.490;2023-07-13T11:28:46;97050;;;28.6;41.5
68628;BME280;55611;48.602;9.490;2023-07-13T11:31:16;97050;;;28.8;41.5
68628;BME280;55611;48.602;9.490;2023-07-13T11:33:49;97050;;;28.9;41.5
68628;BME280;55611;48.602;9.490;2023-07-13T11:36:19;97040;;;29;41.5
68628;BME280;55611;48.602;9.490;2023-07-13T11:38:51;97040;;;29.2;41.5
68628;BME280;55611;48.602;9.490;2023-07-13T11:41:21;97040;;;29.2;41.5
68628;BME280;55611;48.602;9.490;2023-07-13T11:43:51;97050;;;29.2;41.5
68628;BME280;55611;48.602;9.490;2023-07-13T11:46:22;97050;;;29.2;41
68628;BME280;55611;48.602;9.490;2023-07-13T11:48:52;97050;;;29;41
68628;BME280;55611;48.602;9.490;2023-07-13T11:51:27;97040;;;28.6;41.5
68628;BME280;55611;48.602;9.490;2023-07-13T11:53:54;97040;;;28.4;41.5
68628;BME280;55611;48.602;9.490;2023-07-13T11:56:24;97050;;;28.4;41.5
68628;BME280;55611;48.602;9.490;2023-07-13T11:58:56;97050;;;28.5;41.5
68628;BME280;55611;48.602;9.490;2023-07-13T12:01:26;97050;;;28.3;41.5
68628;BME280;55611;48.602;9.490;2023-07-13T12:03:56;97050;;;28.4;41.5
68628;BME280;55611;48.602;9.490;2023-07-13T12:06:29;97050;;;28.4;41.5
68628;BME280;55611;48.602;9.490;2023-07-13T12:08:59;97050;;;28.3;41.5
68628;BME280;55611;48.602;9.490;2023-07-13T12:11:29;97050;;;28.2;41.5
68628;BME280;55611;48.602;9.490;2023-07-13T12:14:00;97050;;;28;41.5
68628;BME280;55611;48.602;9.490;2023-07-13T12:16:32;97050;;;27.9;41.5
68628;BME280;55611;48.602;9.490;2023-07-13T12:19:02;97050;;;28;41.5
68628;BME280;55611;48.602;9.490;2023-07-13T12:21:33;97040;;;28;41.5
68628;BME280;55611;48.602;9.490;2023-07-13T12:24:03;97040;;;28.1;41.5
68628;BME280;55611;48.602;9.490;2023-07-13T12:26:33;97050;;;28.1;41.5
68628;BME280;55611;48.602;9.490;2023-07-13T12:29:05;97050;;;28.3;41.5
68628;BME280;55611;48.602;9.490;2023-07-13T12:31:36;97040;;;28.3;41.5
68628;BME280;55611;48.602;9.490;2023-07-13T12:34:07;97040;;;28.5;41.5
68628;BME280;55611;48.602;9.490;2023-07-13T12:36:37;97040;;;28.7;41.5
68628;BME280;55611;48.602;9.490;2023-07-13T12:39:15;97040;;;28.8;41
68628;BME280;55611;48.602;9.490;2023-07-13T12:41:38;97040;;;28.7;41.5
68628;BME280;55611;48.602;9.490;2023-07-13T12:44:11;97040;;;28.7;41
68628;BME280;55611;48.602;9.490;2023-07-13T12:46:50;97040;;;28.9;41
68628;BME280;55611;48.602;9.490;2023-07-13T12:49:12;97030;;;29.1;41
68628;BME280;55611;48.602;9.490;2023-07-13T12:51:41;97030;;;29.3;41
68628;BME280;55611;48.602;9.490;2023-07-13T12:54:16;97040;;;29.1;40.5
68628;BME280;55611;48.602;9.490;2023-07-13T12:56:43;97040;;;28.9;40.5
68628;BME280;55611;48.602;9.490;2023-07-13T12:59:17;97040;;;28.8;40.5
68628;BME280;55611;48.602;9.490;2023-07-13T13:01:45;97040;;;28.8;40.5
68628;BME280;55611;48.602;9.490;2023-07-13T13:04:15;97040;;;28.8;40.5
68628;BME280;55611;48.602;9.490;2023-07-13T13:06:46;97040;;;28.6;41
68628;BME280;55611;48.602;9.490;2023-07-13T13:09:17;97030;;;28.5;40.5
68628;BME280;55611;48.602;9.490;2023-07-13T13:11:47;97030;;;28.6;40.5
68628;BME280;55611;48.602;9.490;2023-07-13T13:14:18;97030;;;28.6;40.5
68628;BME280;55611;48.602;9.490;2023-07-13T13:16:50;97030;;;28.6;40.5
68628;BME280;55611;48.602;9.490;2023-07-13T13:19:21;97030;;;28.7;40.5
68628;BME280;55611;48.602;9.490;2023-07-13T13:21:51;97030;;;28.7;40.5
68628;BME280;55611;48.602;9.490;2023-07-13T13:24:22;97030;;;28.9;40.5
68628;BME280;55611;48.602;9.490;2023-07-13T13:26:53;97030;;;28.9;40.5
68628;BME280;55611;48.602;9.490;2023-07-13T13:29:23;97030;;;28.7;40.5
68628;BME280;55611;48.602;9.490;2023-07-13T13:31:54;97020;;;28.7;40.5
68628;BME280;55611;48.602;9.490;2023-07-13T13:34:24;97020;;;28.8;40.5
68628;BME280;55611;48.602;9.490;2023-07-13T13:36:55;97020;;;28.8;40.5
68628;BME280;55611;48.602;9.490;2023-07-13T13:39:43;97020;;;28.8;40.5
68628;BME280;55611;48.602;9.490;2023-07-13T13:41:57;97020;;;28.7;40.5
68628;BME280;55611;48.602;9.490;2023-07-13T13:44:27;97020;;;28.6;40.5
68628;BME280;55611;48.602;9.490;2023-07-13T13:46:58;97020;;;28.5;40.5
68628;BME280;55611;48.602;9.490;2023-07-13T13:49:30;97020;;;28.5;40.5
68628;BME280;55611;48.602;9.490;2023-07-13T13:52:00;97030;;;28.4;40.5
68628;BME280;55611;48.602;9.490;2023-07-13T13:54:31;97020;;;28.5;40.5
68628;BME280;55611;48.602;9.490;2023-07-13T13:57:01;97020;;;28.7;40.5
68628;BME280;55611;48.602;9.490;2023-07-13T14:02:07;97020;;;29.1;40
68628;BME280;55611;48.602;9.490;2023-07-13T14:04:34;97020;;;29.1;40
68628;BME280;55611;48.602;9.490;2023-07-13T14:07:05;97020;;;29.2;40
68628;BME280;55611;48.602;9.490;2023-07-13T14:09:35;97020;;;29.1;40
68628;BME280;55611;48.602;9.490;2023-07-13T14:12:08;97020;;;28.7;40
68628;BME280;55611;48.602;9.490;2023-07-13T14:14:37;97020;;;28.5;40
68628;BME280;55611;48.602;9.490;2023-07-13T14:17:24;97020;;;28.6;40
68628;BME280;55611;48.602;9.490;2023-07-13T14:19:38;97010;;;28.5;40
68628;BME280;55611;48.602;9.490;2023-07-13T14:22:09;97010;;;28.5;40
68628;BME280;55611;48.602;9.490;2023-07-13T14:24:40;97010;;;28.6;40
68628;BME280;55611;48.602;9.490;2023-07-13T14:27:11;97010;;;28.6;40
68628;BME280;55611;48.602;9.490;2023-07-13T14:29:41;97010;;;28.6;40
68628;BME280;55611;48.602;9.490;2023-07-13T14:32:12;97010;;;28.7;40
68628;BME280;55611;48.602;9.490;2023-07-13T14:34:43;97010;;;28.9;40
68628;BME280;55611;48.602;9.490;2023-07-13T14:37:14;97010;;;29;39.5
68628;BME280;55611;48.602;9.490;2023-07-13T14:39:45;97010;;;29;39.5